KCHD

Chandler Municipal Airport

Chandler, Arizona, USA
METAR KCHD 270347Z 27006KT 10SM CLR 27/M01 A2977 RMK LAST
Observed Flight Rules
May-27 @ 03:47 UTC (8 hours ago) Visual Flight Rules
Wind Visibility Clouds
270° at 6 knots 10 miles
  • Clear skies
Temperatures Readings
Current 27°C / 81°F
Dewpoint -1°C / 30°F
Humidity 16%
Altimeter 29.77" Hg
Pressure 1008 hPa
Elevation 379
METAR KCHD 270347Z 27006KT 10SM CLR 27/M01 A2977 RMK LAST
Observed Flight Rules
May-27 @ 03:47 UTC
(8 hours ago)
VFR
Wind Visibility
270° at 6 knots 10 miles
Clouds
  • Clear skies
Temperature Dewpoint
27°C / 81°F -1°C / 30°F
Humidity Altimeter Pressure
16% 29.77" Hg 1008 hPa